Jicin, Czech Republic
Current Conditions -  °F | °C
As of 3:00 AM on Wednesday 28 Jan 2015 (Local Time) from LKPD Reporting Station
Overcast Overcast  
Wind Chill: 28°   Ceiling: 2100
Heat Index: 34°   Visibility: 6mi
Dew Point: 32°   Wind: 7mph
Humidity: 93%   Direction: 270°W
Pressure: 30.03"   Gusts: NA
Location:  50.44°N, 15.35°E
Report Text: LKPD 280100Z 27006KT 9999 FEW011 BKN021 OVC040 01/00 Q1017
Loading
Personal Weather Stations






























Interactive Weather Map New forecast layout! Learn more

10-Day Weather Forecast

Advertisements
Track Severe Weather on mobile